Time;durP1;ratioP1;P1;durP2;ratioP2;P2;SDS_P1;SDS_P2;PMS_P1;PMS_P2;Temp;Humidity;BMP_temperature;BMP_pressure;BME280_temperature;BME280_humidity;BME280_pressure;Samples;Min_cycle;Max_cycle;Signal;HPM_P1;HPM_P2
2021/07/17 00:01:15;;;;;;;4.22;2.15;;;25.40;51.10;;;;;;5020064;28;20512;-54
2021/07/17 00:03:40;;;;;;;3.53;2.13;;;25.40;51.10;;;;;;5025568;28;20029;-52
2021/07/17 00:06:06;;;;;;;4.55;2.33;;;25.40;51.10;;;;;;5017996;28;20033;-57
2021/07/17 00:08:32;;;;;;;5.40;2.80;;;25.40;51.10;;;;;;5025973;28;20033;-55
2021/07/17 00:10:59;;;;;;;3.55;2.05;;;25.30;51.00;;;;;;5022685;28;20052;-50
2021/07/17 00:13:25;;;;;;;4.07;1.92;;;25.30;51.10;;;;;;5030649;28;20077;-53
2021/07/17 00:15:51;;;;;;;5.00;2.60;;;25.30;51.10;;;;;;5025989;28;20034;-54
2021/07/17 00:18:18;;;;;;;4.70;2.30;;;25.30;51.10;;;;;;5015787;28;20437;-50
2021/07/17 00:20:45;;;;;;;4.72;2.10;;;25.30;51.10;;;;;;5013413;28;20112;-50
2021/07/17 00:23:12;;;;;;;5.65;2.40;;;25.30;51.10;;;;;;5017173;28;20022;-53
2021/07/17 00:25:39;;;;;;;6.07;3.13;;;25.30;51.10;;;;;;5018453;28;20133;-58
2021/07/17 00:28:05;;;;;;;5.82;2.15;;;25.30;51.10;;;;;;5026716;28;20112;-58
2021/07/17 00:30:31;;;;;;;5.35;2.03;;;25.30;51.20;;;;;;5025126;28;20341;-54
2021/07/17 00:32:57;;;;;;;4.13;2.47;;;25.30;51.20;;;;;;5023624;28;20048;-50
2021/07/17 00:35:23;;;;;;;4.38;2.38;;;25.30;51.80;;;;;;5028085;28;20026;-51
2021/07/17 00:37:49;;;;;;;3.92;2.20;;;25.30;51.20;;;;;;5028660;28;20025;-55
2021/07/17 00:40:19;;;;;;;6.07;2.25;;;25.30;51.20;;;;;;5028397;28;20413;-51
2021/07/17 00:42:47;;;;;;;4.70;2.35;;;25.30;51.30;;;;;;5019492;28;20037;-55
2021/07/17 00:45:14;;;;;;;4.97;2.28;;;25.30;51.30;;;;;;5016490;28;21795;-53
2021/07/17 00:47:40;;;;;;;4.82;2.50;;;25.30;51.30;;;;;;5027161;28;20387;-54
2021/07/17 00:50:09;;;;;;;4.22;2.50;;;25.30;51.30;;;;;;5016524;28;20034;-53
2021/07/17 00:52:36;;;;;;;3.55;2.08;;;25.20;51.20;;;;;;5018127;28;20044;-56
2021/07/17 00:55:07;;;;;;;4.65;2.55;;;25.20;51.30;;;;;;5024769;28;20065;-53
2021/07/17 00:57:33;;;;;;;3.85;2.10;;;25.20;51.30;;;;;;5014208;28;20416;-52
2021/07/17 01:00:02;;;;;;;5.68;2.83;;;25.20;51.30;;;;;;5017203;28;20037;-58
2021/07/17 01:02:34;;;;;;;7.18;3.17;;;25.20;51.30;;;;;;5016794;28;20499;-55
2021/07/17 01:05:00;;;;;;;6.68;2.38;;;25.20;51.30;;;;;;5033403;28;20072;-57
2021/07/17 01:07:26;;;;;;;5.15;2.30;;;25.20;51.30;;;;;;5026884;28;20037;-50
2021/07/17 01:09:52;;;;;;;6.60;2.58;;;25.20;51.30;;;;;;5022463;28;20045;-53
2021/07/17 01:12:19;;;;;;;5.47;2.45;;;25.20;51.30;;;;;;5017749;28;20036;-56
2021/07/17 01:14:46;;;;;;;5.40;2.30;;;25.20;51.30;;;;;;5023895;28;20041;-56
2021/07/17 01:17:13;;;;;;;3.88;1.98;;;25.20;51.30;;;;;;5022387;28;20416;-56
2021/07/17 01:19:40;;;;;;;4.80;2.28;;;25.20;51.30;;;;;;5027438;28;20040;-56
2021/07/17 01:22:06;;;;;;;4.05;2.17;;;25.20;51.30;;;;;;5018365;28;20099;-54
2021/07/17 01:24:32;;;;;;;2.95;1.80;;;25.20;51.40;;;;;;5026655;28;20073;-54
2021/07/17 01:26:58;;;;;;;4.85;2.30;;;25.20;51.30;;;;;;5019570;28;20021;-57
2021/07/17 01:29:24;;;;;;;4.85;1.90;;;25.20;51.40;;;;;;5028045;28;20037;-55
2021/07/17 01:31:51;;;;;;;4.90;2.40;;;25.10;51.30;;;;;;5026499;28;20107;-54
2021/07/17 01:34:17;;;;;;;4.07;2.35;;;25.10;51.30;;;;;;5021581;28;20507;-53
2021/07/17 01:36:43;;;;;;;4.15;2.20;;;25.10;51.30;;;;;;5022953;28;20052;-55
2021/07/17 01:39:09;;;;;;;4.07;2.05;;;25.10;51.30;;;;;;5027513;28;20033;-56
2021/07/17 01:41:35;;;;;;;5.00;2.20;;;25.20;51.30;;;;;;5015202;28;20029;-51
2021/07/17 01:44:01;;;;;;;4.18;2.15;;;25.10;51.30;;;;;;5020349;28;20029;-54
2021/07/17 01:46:28;;;;;;;4.55;2.13;;;25.10;51.30;;;;;;5015495;28;20422;-53
2021/07/17 01:48:57;;;;;;;5.40;2.05;;;25.10;51.30;;;;;;5025356;28;20044;-55
2021/07/17 01:51:25;;;;;;;4.30;2.17;;;25.10;51.30;;;;;;5026976;28;20037;-56
2021/07/17 01:53:56;;;;;;;4.32;2.13;;;25.10;51.30;;;;;;5019668;28;20033;-55
2021/07/17 01:56:24;;;;;;;4.68;2.17;;;25.10;51.30;;;;;;5017554;28;20029;-51
2021/07/17 01:58:49;;;;;;;4.20;2.20;;;25.10;51.20;;;;;;5020114;28;20111;-53
2021/07/17 02:01:16;;;;;;;4.38;2.42;;;25.10;51.30;;;;;;5014652;28;20041;-52
2021/07/17 02:03:46;;;;;;;4.07;1.92;;;25.10;51.30;;;;;;5020515;28;20022;-52
2021/07/17 02:06:12;;;;;;;5.40;2.53;;;25.10;51.20;;;;;;5030950;28;20109;-57
2021/07/17 02:08:41;;;;;;;4.15;2.20;;;25.00;51.20;;;;;;5022152;28;20034;-57
2021/07/17 02:11:08;;;;;;;3.28;2.05;;;25.10;51.20;;;;;;5024236;28;20057;-54
2021/07/17 02:13:34;;;;;;;5.57;2.50;;;25.00;51.20;;;;;;5024695;28;20037;-55
2021/07/17 02:16:01;;;;;;;5.63;2.40;;;25.00;51.20;;;;;;5028669;28;20031;-56
2021/07/17 02:18:32;;;;;;;4.53;2.67;;;25.00;51.20;;;;;;5027488;28;20046;-54
2021/07/17 02:20:59;;;;;;;4.53;1.95;;;25.10;51.30;;;;;;5019141;28;20034;-53
2021/07/17 02:23:26;;;;;;;3.72;2.10;;;25.00;51.20;;;;;;5028370;28;20026;-52
2021/07/17 02:25:52;;;;;;;4.10;2.08;;;25.00;51.20;;;;;;5029619;28;20021;-52
2021/07/17 02:28:18;;;;;;;5.28;2.60;;;25.00;51.20;;;;;;5026751;28;20093;-57
2021/07/17 02:30:44;;;;;;;4.60;2.38;;;25.00;51.30;;;;;;5025162;28;20103;-52
2021/07/17 02:33:10;;;;;;;4.78;2.30;;;25.00;51.30;;;;;;5021176;28;20410;-58
2021/07/17 02:35:36;;;;;;;4.28;2.05;;;25.00;51.20;;;;;;5027077;28;20066;-55
2021/07/17 02:38:02;;;;;;;4.10;2.33;;;25.00;51.20;;;;;;5016754;28;20132;-58
2021/07/17 02:40:28;;;;;;;3.92;2.33;;;25.00;51.30;;;;;;5021710;28;20064;-53
2021/07/17 02:42:54;;;;;;;3.95;1.77;;;25.00;51.30;;;;;;5022470;28;20049;-49
2021/07/17 02:45:20;;;;;;;4.47;1.92;;;25.00;51.30;;;;;;5022733;28;20079;-57
2021/07/17 02:47:46;;;;;;;4.45;2.05;;;25.00;51.30;;;;;;5027224;28;20453;-54
2021/07/17 02:50:12;;;;;;;4.55;2.05;;;25.00;51.30;;;;;;5021332;28;20052;-51
2021/07/17 02:52:38;;;;;;;3.63;2.00;;;25.00;51.30;;;;;;5028005;28;20040;-55
2021/07/17 02:55:05;;;;;;;4.97;2.35;;;25.00;51.30;;;;;;5020545;28;20074;-54
2021/07/17 02:57:31;;;;;;;4.05;2.22;;;25.00;51.30;;;;;;5026285;28;20481;-49
2021/07/17 02:59:57;;;;;;;4.30;2.15;;;25.00;51.40;;;;;;5019442;28;20026;-53
2021/07/17 03:02:23;;;;;;;4.43;2.30;;;24.90;51.30;;;;;;5020573;28;20041;-58
2021/07/17 03:04:49;;;;;;;4.47;2.08;;;24.90;51.40;;;;;;5027843;28;20425;-55
2021/07/17 03:07:14;;;;;;;3.92;2.30;;;25.00;51.40;;;;;;5028711;28;20022;-58
2021/07/17 03:09:40;;;;;;;4.30;2.17;;;24.90;51.40;;;;;;5022144;28;20342;-48
2021/07/17 03:12:07;;;;;;;3.13;2.20;;;24.90;51.40;;;;;;5028446;28;20063;-55
2021/07/17 03:14:33;;;;;;;4.22;1.90;;;24.90;51.40;;;;;;5015918;28;20018;-54
2021/07/17 03:16:59;;;;;;;4.75;2.22;;;24.90;51.40;;;;;;5029805;28;20037;-57
2021/07/17 03:19:25;;;;;;;4.07;2.38;;;24.90;51.50;;;;;;5028439;28;20030;-56
2021/07/17 03:21:52;;;;;;;5.13;2.47;;;24.90;51.50;;;;;;5026072;28;20025;-54
2021/07/17 03:24:17;;;;;;;4.45;2.10;;;24.90;51.50;;;;;;5032143;28;20469;-50
2021/07/17 03:26:43;;;;;;;4.03;1.90;;;24.90;51.50;;;;;;5030008;28;20021;-55
2021/07/17 03:29:10;;;;;;;4.68;2.13;;;24.90;51.50;;;;;;5021080;28;20029;-49
2021/07/17 03:31:35;;;;;;;4.03;2.10;;;24.90;51.50;;;;;;5031771;28;20153;-53
2021/07/17 03:34:01;;;;;;;4.10;2.08;;;24.90;51.50;;;;;;5018431;28;20120;-49
2021/07/17 03:36:28;;;;;;;5.60;2.30;;;24.90;51.50;;;;;;5027136;28;20394;-57
2021/07/17 03:38:54;;;;;;;5.15;2.20;;;24.90;51.50;;;;;;5025980;28;20397;-52
2021/07/17 03:41:20;;;;;;;4.82;2.20;;;24.80;51.50;;;;;;5022740;28;20029;-53
2021/07/17 03:43:46;;;;;;;3.90;1.88;;;24.90;51.60;;;;;;5031870;28;20433;-50
2021/07/17 03:46:13;;;;;;;3.90;2.00;;;24.90;51.60;;;;;;5025351;28;20049;-54
2021/07/17 03:48:38;;;;;;;3.95;1.83;;;24.80;51.50;;;;;;5023354;28;20043;-52
2021/07/17 03:51:06;;;;;;;4.57;2.30;;;24.80;51.50;;;;;;5026896;28;20434;-50
2021/07/17 03:53:32;;;;;;;4.20;2.20;;;24.80;51.50;;;;;;5021525;28;20029;-48
2021/07/17 03:55:59;;;;;;;4.50;1.98;;;24.90;51.60;;;;;;5025235;28;20026;-56
2021/07/17 03:58:25;;;;;;;3.60;1.88;;;24.80;51.60;;;;;;5019447;28;20097;-53
2021/07/17 04:00:51;;;;;;;4.03;2.22;;;24.90;51.60;;;;;;5015610;28;20029;-55
2021/07/17 04:03:17;;;;;;;4.38;2.00;;;24.90;51.60;;;;;;5028885;28;20084;-53
2021/07/17 04:05:43;;;;;;;5.05;2.28;;;24.80;51.60;;;;;;5018178;28;20212;-59
2021/07/17 04:08:08;;;;;;;3.38;1.83;;;24.80;51.50;;;;;;5023436;28;20053;-52
2021/07/17 04:10:34;;;;;;;3.92;1.90;;;24.80;51.60;;;;;;5023784;28;20050;-53
2021/07/17 04:13:03;;;;;;;4.28;1.88;;;24.80;51.60;;;;;;5025212;28;20376;-49
2021/07/17 04:15:29;;;;;;;3.50;1.80;;;24.80;51.60;;;;;;5020464;28;20036;-54
2021/07/17 04:17:55;;;;;;;4.03;1.85;;;24.80;51.60;;;;;;5023997;28;20346;-53
2021/07/17 04:20:21;;;;;;;3.30;1.90;;;24.80;51.60;;;;;;5022345;28;20029;-52
2021/07/17 04:22:47;;;;;;;4.18;1.95;;;24.80;51.50;;;;;;5017748;28;20032;-56
2021/07/17 04:25:13;;;;;;;4.47;2.15;;;24.80;51.60;;;;;;5019744;28;20038;-60
2021/07/17 04:27:39;;;;;;;4.60;2.25;;;24.80;51.60;;;;;;5028558;28;20061;-58
2021/07/17 04:30:07;;;;;;;4.00;1.65;;;24.80;51.60;;;;;;5019663;28;20076;-54
2021/07/17 04:32:34;;;;;;;3.67;1.73;;;24.80;51.60;;;;;;5016880;28;20046;-53
2021/07/17 04:35:00;;;;;;;3.65;2.10;;;24.80;52.20;;;;;;5022952;28;20026;-54
2021/07/17 04:37:25;;;;;;;4.65;1.85;;;24.80;51.60;;;;;;5021285;28;20033;-55
2021/07/17 04:39:51;;;;;;;2.75;1.40;;;24.80;51.60;;;;;;5028809;28;20037;-57
2021/07/17 04:42:18;;;;;;;3.40;1.90;;;24.80;51.50;;;;;;5018056;28;20030;-50
2021/07/17 04:44:43;;;;;;;3.95;1.83;;;24.80;51.50;;;;;;5014756;28;20026;-53
2021/07/17 04:47:10;;;;;;;2.85;1.63;;;24.80;51.50;;;;;;5019951;28;20454;-52
2021/07/17 04:49:35;;;;;;;4.30;2.05;;;24.90;51.60;;;;;;5020316;28;20060;-57
2021/07/17 04:52:01;;;;;;;3.97;1.90;;;24.80;51.50;;;;;;5020140;28;20058;-56
2021/07/17 04:54:27;;;;;;;4.20;1.95;;;24.80;51.60;;;;;;5017762;28;20045;-53
2021/07/17 04:56:53;;;;;;;4.45;1.73;;;24.80;51.60;;;;;;5022194;28;20026;-54
2021/07/17 04:59:19;;;;;;;3.65;1.65;;;24.80;51.60;;;;;;5017839;28;20026;-53
2021/07/17 05:01:45;;;;;;;3.25;1.60;;;24.80;51.60;;;;;;5014308;28;20076;-55
2021/07/17 05:04:11;;;;;;;3.45;1.75;;;24.90;51.60;;;;;;5015875;28;20450;-52
2021/07/17 05:06:37;;;;;;;3.00;1.67;;;24.80;51.60;;;;;;5030073;28;20037;-53
2021/07/17 05:09:04;;;;;;;3.80;1.70;;;24.80;51.60;;;;;;5016623;28;20243;-56
2021/07/17 05:11:30;;;;;;;3.65;1.95;;;24.80;51.60;;;;;;5025152;28;20452;-55
2021/07/17 05:13:56;;;;;;;4.00;1.70;;;24.90;51.70;;;;;;5028568;28;20036;-51
2021/07/17 05:16:23;;;;;;;2.35;1.58;;;24.90;51.60;;;;;;5027434;28;20048;-53
2021/07/17 05:18:49;;;;;;;2.92;1.55;;;24.80;51.60;;;;;;5024123;28;20039;-55
2021/07/17 05:21:18;;;;;;;3.20;1.30;;;24.90;51.70;;;;;;5021035;28;20448;-52
2021/07/17 05:23:44;;;;;;;4.90;1.55;;;24.90;51.70;;;;;;5018801;28;20339;-49
2021/07/17 05:26:10;;;;;;;3.65;1.45;;;24.90;51.70;;;;;;5026455;28;20029;-55
2021/07/17 05:28:37;;;;;;;3.78;1.75;;;24.90;51.70;;;;;;5026004;28;20029;-54
2021/07/17 05:31:03;;;;;;;3.15;1.45;;;24.90;51.70;;;;;;5022356;28;20095;-55
2021/07/17 05:33:29;;;;;;;4.05;1.60;;;24.90;51.70;;;;;;5023203;28;20419;-53
2021/07/17 05:35:54;;;;;;;3.13;1.48;;;24.90;51.80;;;;;;5019439;28;20110;-54
2021/07/17 05:38:20;;;;;;;2.17;1.13;;;24.90;51.70;;;;;;5027183;28;20060;-53
2021/07/17 05:40:46;;;;;;;3.13;1.60;;;24.90;51.80;;;;;;5023480;28;20068;-55
2021/07/17 05:43:12;;;;;;;3.10;1.40;;;24.90;51.80;;;;;;5023483;28;20475;-55
2021/07/17 05:45:38;;;;;;;2.75;1.35;;;24.90;52.40;;;;;;5025232;28;20045;-56
2021/07/17 05:48:05;;;;;;;2.85;1.20;;;24.90;51.80;;;;;;5019026;28;20366;-55
2021/07/17 05:50:31;;;;;;;2.00;1.30;;;24.90;51.80;;;;;;5017657;28;20129;-52
2021/07/17 05:52:57;;;;;;;3.10;1.45;;;24.90;51.90;;;;;;5018888;28;20033;-54
2021/07/17 05:55:23;;;;;;;4.43;1.65;;;24.90;51.90;;;;;;5015030;28;20109;-49
2021/07/17 05:57:49;;;;;;;2.53;1.52;;;24.90;52.00;;;;;;5031651;28;20030;-52
2021/07/17 06:00:19;;;;;;;1.90;1.17;;;24.90;52.00;;;;;;5028051;28;20029;-51
2021/07/17 06:02:46;;;;;;;2.58;1.20;;;25.00;52.00;;;;;;5017525;28;20038;-56
2021/07/17 06:05:12;;;;;;;3.55;1.50;;;25.00;52.00;;;;;;5019861;28;20053;-59
2021/07/17 06:07:37;;;;;;;3.00;1.25;;;25.00;52.00;;;;;;5026645;28;20432;-54
2021/07/17 06:10:05;;;;;;;3.50;1.60;;;25.00;52.10;;;;;;5021441;28;20496;-54
2021/07/17 06:12:31;;;;;;;3.55;1.90;;;25.00;52.10;;;;;;5023107;28;20058;-52
2021/07/17 06:14:57;;;;;;;3.00;1.35;;;25.00;52.10;;;;;;5018097;28;20072;-53
2021/07/17 06:17:23;;;;;;;2.95;1.30;;;25.00;52.10;;;;;;5026714;28;20398;-49
2021/07/17 06:19:49;;;;;;;1.55;0.95;;;25.00;52.10;;;;;;5019400;28;20410;-54
2021/07/17 06:22:15;;;;;;;2.63;1.10;;;25.00;52.10;;;;;;5028352;28;20030;-55
2021/07/17 06:24:41;;;;;;;3.17;1.17;;;25.00;52.10;;;;;;5014695;28;20026;-57
2021/07/17 06:27:07;;;;;;;3.03;1.50;;;25.00;52.10;;;;;;5017842;28;20033;-55
2021/07/17 06:29:34;;;;;;;3.03;1.45;;;25.00;52.10;;;;;;5014015;28;20396;-55
2021/07/17 06:32:00;;;;;;;2.58;1.38;;;25.00;52.10;;;;;;5012234;28;20053;-55
2021/07/17 06:34:26;;;;;;;2.53;1.23;;;25.00;52.20;;;;;;5023957;28;20052;-49
2021/07/17 06:36:53;;;;;;;2.38;1.35;;;25.00;52.20;;;;;;5020924;28;20068;-57
2021/07/17 06:39:19;;;;;;;2.05;1.00;;;25.00;52.20;;;;;;5025984;28;20041;-52
2021/07/17 06:41:45;;;;;;;2.10;1.10;;;25.10;52.20;;;;;;5025033;28;20039;-55
2021/07/17 06:44:11;;;;;;;2.30;1.05;;;25.00;52.20;;;;;;5022555;28;20026;-55
2021/07/17 06:46:36;;;;;;;3.28;1.30;;;25.10;52.20;;;;;;5019742;28;20417;-58
2021/07/17 06:49:03;;;;;;;2.70;1.23;;;25.10;52.30;;;;;;5016555;28;20022;-56
2021/07/17 06:51:28;;;;;;;2.08;0.95;;;25.10;52.30;;;;;;5030575;28;20103;-56
2021/07/17 06:53:55;;;;;;;1.45;0.82;;;25.10;52.20;;;;;;5025847;28;20029;-57
2021/07/17 06:56:21;;;;;;;2.80;1.25;;;25.20;52.30;;;;;;5024246;28;20025;-58
2021/07/17 06:58:47;;;;;;;3.95;1.38;;;25.20;52.30;;;;;;5024590;28;20327;-57
2021/07/17 07:01:13;;;;;;;1.67;0.80;;;25.30;52.20;;;;;;5028242;28;20021;-57
2021/07/17 07:03:38;;;;;;;1.73;1.30;;;25.30;52.20;;;;;;5023053;28;20383;-58
2021/07/17 07:06:04;;;;;;;2.28;1.20;;;25.30;52.10;;;;;;5020607;28;20087;-53
2021/07/17 07:08:32;;;;;;;3.88;1.55;;;25.40;52.20;;;;;;5018526;28;20034;-55
2021/07/17 07:10:58;;;;;;;2.55;1.08;;;25.40;52.10;;;;;;5018764;28;20037;-59
2021/07/17 07:13:23;;;;;;;2.10;1.02;;;25.40;52.00;;;;;;5023461;28;20037;-53
2021/07/17 07:15:49;;;;;;;1.25;0.82;;;25.40;52.00;;;;;;5024954;28;20017;-54
2021/07/17 07:18:15;;;;;;;2.47;0.80;;;25.40;51.90;;;;;;5019044;28;20471;-55
2021/07/17 07:20:42;;;;;;;2.13;0.93;;;25.40;51.90;;;;;;5025694;28;20036;-55
2021/07/17 07:23:08;;;;;;;2.40;1.10;;;25.50;51.90;;;;;;5017360;28;20057;-58
2021/07/17 07:25:34;;;;;;;1.65;0.80;;;25.50;51.80;;;;;;5027276;28;20029;-57
2021/07/17 07:28:00;;;;;;;3.17;1.40;;;25.50;51.70;;;;;;5017061;28;20032;-56
2021/07/17 07:30:26;;;;;;;1.50;0.85;;;25.50;51.60;;;;;;5023498;28;20041;-54
2021/07/17 07:32:52;;;;;;;3.38;1.13;;;25.60;51.60;;;;;;5015362;28;20103;-60
2021/07/17 07:35:23;;;;;;;2.00;1.20;;;25.60;52.20;;;;;;4998456;28;20034;-53
2021/07/17 07:37:50;;;;;;;1.67;1.00;;;25.60;51.40;;;;;;5027431;28;20048;-54
2021/07/17 07:40:17;;;;;;;2.30;1.05;;;25.60;51.40;;;;;;5031768;28;20040;-53
2021/07/17 07:42:43;;;;;;;2.92;1.08;;;25.60;51.40;;;;;;5033848;28;20033;-57
2021/07/17 07:45:09;;;;;;;3.10;1.08;;;25.70;51.40;;;;;;5016994;28;20022;-55
2021/07/17 07:47:35;;;;;;;1.65;0.90;;;25.70;51.30;;;;;;5008409;28;20099;-57
2021/07/17 07:50:01;;;;;;;1.88;1.10;;;25.70;51.30;;;;;;5016181;28;20438;-54
2021/07/17 07:52:26;;;;;;;2.40;1.00;;;25.70;51.20;;;;;;5016282;28;20025;-59
2021/07/17 07:54:52;;;;;;;2.60;1.20;;;25.80;51.20;;;;;;5017421;28;20030;-55
2021/07/17 07:57:18;;;;;;;2.63;0.93;;;25.80;51.20;;;;;;5014832;28;20026;-56
2021/07/17 07:59:44;;;;;;;2.15;0.90;;;25.80;51.20;;;;;;5014725;28;20116;-57
2021/07/17 08:02:11;;;;;;;1.63;1.17;;;25.80;51.10;;;;;;5016238;28;20072;-58
2021/07/17 08:04:37;;;;;;;2.38;1.20;;;25.80;51.10;;;;;;5013709;28;20030;-56
2021/07/17 08:07:03;;;;;;;1.52;0.90;;;25.90;51.10;;;;;;5015230;28;20098;-55
2021/07/17 08:09:29;;;;;;;1.65;1.23;;;25.90;51.00;;;;;;5016786;28;20068;-57
2021/07/17 08:11:54;;;;;;;1.27;0.98;;;25.90;50.90;;;;;;5013624;28;20187;-54
2021/07/17 08:14:21;;;;;;;3.65;1.20;;;25.90;50.80;;;;;;5011924;28;20026;-57
2021/07/17 08:16:47;;;;;;;1.58;1.00;;;25.90;50.80;;;;;;5015798;28;20030;-55
2021/07/17 08:19:13;;;;;;;1.50;1.05;;;25.90;50.70;;;;;;5015167;28;20087;-56
2021/07/17 08:21:39;;;;;;;2.83;1.23;;;25.90;50.70;;;;;;5013692;28;20507;-53
2021/07/17 08:24:06;;;;;;;2.50;1.20;;;25.90;50.70;;;;;;5013858;28;20157;-56
2021/07/17 08:26:32;;;;;;;2.72;0.80;;;25.90;50.60;;;;;;5014667;28;20388;-55
2021/07/17 08:28:58;;;;;;;2.50;1.00;;;25.90;50.50;;;;;;5013413;28;20163;-56
2021/07/17 08:31:24;;;;;;;2.25;1.08;;;25.90;50.40;;;;;;5011724;28;20076;-57
2021/07/17 08:33:50;;;;;;;3.55;1.05;;;26.00;50.40;;;;;;5012846;28;20048;-56
2021/07/17 08:36:17;;;;;;;3.03;1.45;;;26.00;50.30;;;;;;5013036;28;20512;-57
2021/07/17 08:38:44;;;;;;;1.85;0.93;;;26.00;50.30;;;;;;5013593;28;20061;-57
2021/07/17 08:41:10;;;;;;;1.38;0.82;;;26.00;50.30;;;;;;5012827;28;20450;-56
2021/07/17 08:43:40;;;;;;;1.58;1.00;;;26.00;50.20;;;;;;5012327;28;20113;-59
2021/07/17 08:46:06;;;;;;;1.52;0.80;;;26.00;50.10;;;;;;5015584;28;20441;-55
2021/07/17 08:48:35;;;;;;;2.17;0.90;;;26.00;50.10;;;;;;5011210;28;20030;-61
2021/07/17 08:51:02;;;;;;;3.72;1.00;;;26.00;50.10;;;;;;5014878;28;20038;-59
2021/07/17 08:53:29;;;;;;;2.85;0.80;;;26.10;50.20;;;;;;5013011;28;20044;-58
2021/07/17 08:55:56;;;;;;;1.38;0.70;;;26.10;50.10;;;;;;5011841;28;20114;-60
2021/07/17 08:58:22;;;;;;;2.00;1.00;;;26.00;50.10;;;;;;5012807;28;20171;-54
2021/07/17 09:00:48;;;;;;;2.45;0.90;;;26.10;50.10;;;;;;5013983;28;20116;-56
2021/07/17 09:03:18;;;;;;;2.05;1.00;;;26.00;50.10;;;;;;5014433;28;20025;-57
2021/07/17 09:05:46;;;;;;;1.02;0.70;;;26.10;50.10;;;;;;5013290;28;20092;-54
2021/07/17 09:08:13;;;;;;;1.60;0.80;;;26.10;50.10;;;;;;5029373;28;20346;-60
2021/07/17 09:10:40;;;;;;;0.70;0.60;;;26.10;50.00;;;;;;5013545;28;20733;-58
2021/07/17 09:13:07;;;;;;;1.40;0.80;;;26.10;49.90;;;;;;5013593;28;20049;-54
2021/07/17 09:15:34;;;;;;;2.13;0.80;;;26.10;49.80;;;;;;5013745;28;20441;-52
2021/07/17 09:18:00;;;;;;;1.88;0.77;;;26.10;49.70;;;;;;5015628;28;20025;-53
2021/07/17 09:20:26;;;;;;;1.92;0.90;;;26.10;49.70;;;;;;5015126;28;20132;-53
2021/07/17 09:23:00;;;;;;;3.22;1.45;;;26.20;49.80;;;;;;5015821;28;20029;-57
2021/07/17 09:25:42;;;;;;;2.92;1.00;;;26.20;49.60;;;;;;5010905;28;20038;-55
2021/07/17 09:28:17;;;;;;;4.05;1.40;;;26.20;49.50;;;;;;5013292;28;20040;-53
2021/07/17 09:30:44;;;;;;;1.88;0.93;;;26.20;49.60;;;;;;5012789;28;20046;-58
2021/07/17 09:33:11;;;;;;;3.17;1.40;;;26.10;49.50;;;;;;5013408;28;20422;-55
2021/07/17 09:35:49;;;;;;;2.72;1.20;;;26.20;49.50;;;;;;5013019;28;20060;-55
2021/07/17 09:38:17;;;;;;;1.98;1.10;;;26.20;49.20;;;;;;5015403;28;20045;-59
2021/07/17 09:40:42;;;;;;;2.00;0.90;;;26.20;49.20;;;;;;5013180;28;20113;-56
2021/07/17 09:43:09;;;;;;;2.10;0.88;;;26.20;49.20;;;;;;5012275;28;20113;-59
2021/07/17 09:45:37;;;;;;;1.65;0.73;;;26.20;49.20;;;;;;5012605;28;20057;-60
2021/07/17 09:48:22;;;;;;;1.80;0.60;;;26.20;49.20;;;;;;5014124;28;20085;-59
2021/07/17 09:50:50;;;;;;;1.55;0.55;;;26.20;49.20;;;;;;5013077;28;20128;-58
2021/07/17 09:53:35;;;;;;;1.70;0.60;;;26.30;49.30;;;;;;5013849;28;20022;-56
2021/07/17 09:56:25;;;;;;;1.17;0.60;;;26.30;49.30;;;;;;5013505;28;20029;-56
2021/07/17 09:58:52;;;;;;;1.92;0.60;;;26.30;49.30;;;;;;5012078;28;20433;-57
2021/07/17 10:01:22;;;;;;;1.90;0.90;;;26.20;49.20;;;;;;5013393;28;20030;-58
2021/07/17 10:03:51;;;;;;;1.17;0.60;;;26.20;49.20;;;;;;5012946;28;20105;-55
2021/07/17 10:06:33;;;;;;;2.03;0.57;;;26.30;49.30;;;;;;5015365;28;20041;-57
2021/07/17 10:09:01;;;;;;;0.50;0.38;;;26.30;49.00;;;;;;5010470;28;20124;-56
2021/07/17 10:11:28;;;;;;;0.73;0.50;;;26.30;49.10;;;;;;5013662;28;20044;-55
2021/07/17 10:13:54;;;;;;;1.30;0.60;;;26.30;49.00;;;;;;5011829;28;20366;-55
2021/07/17 10:16:23;;;;;;;1.33;0.60;;;26.30;49.00;;;;;;5014412;28;20088;-58
2021/07/17 10:18:49;;;;;;;1.25;0.60;;;26.30;48.90;;;;;;5009655;28;20026;-58
2021/07/17 10:21:16;;;;;;;0.40;0.40;;;26.30;48.90;;;;;;5011743;28;20408;-56
2021/07/17 10:23:42;;;;;;;0.88;0.40;;;26.30;48.80;;;;;;5015931;28;20125;-55
2021/07/17 10:26:09;;;;;;;2.10;0.47;;;26.30;48.80;;;;;;5012714;28;20026;-57
2021/07/17 10:28:36;;;;;;;1.58;0.70;;;26.30;48.70;;;;;;5012488;28;20030;-61
2021/07/17 10:31:03;;;;;;;0.82;0.47;;;26.30;48.70;;;;;;5014374;28;20052;-55
2021/07/17 10:33:31;;;;;;;1.45;0.60;;;26.30;48.70;;;;;;5015389;28;20120;-58
2021/07/17 10:36:00;;;;;;;1.25;0.43;;;26.30;48.60;;;;;;5016683;28;20484;-55
2021/07/17 10:38:29;;;;;;;1.58;0.63;;;26.30;48.60;;;;;;5034295;28;20060;-60
2021/07/17 10:40:58;;;;;;;0.80;0.60;;;26.30;48.50;;;;;;5020391;28;20057;-57
2021/07/17 10:43:24;;;;;;;0.60;0.40;;;26.30;48.50;;;;;;5016478;28;20044;-53
2021/07/17 10:45:51;;;;;;;2.85;0.57;;;26.30;48.60;;;;;;5016194;28;20037;-58
2021/07/17 10:48:26;;;;;;;1.60;0.93;;;26.30;48.60;;;;;;5012865;28;20029;-58
2021/07/17 10:50:59;;;;;;;2.03;0.70;;;26.40;48.60;;;;;;5014616;28;20372;-59
2021/07/17 10:53:41;;;;;;;1.17;0.60;;;26.40;48.60;;;;;;5007581;28;20029;-60
2021/07/17 10:56:28;;;;;;;1.20;0.47;;;26.40;48.50;;;;;;5011802;28;20072;-57
2021/07/17 10:59:07;;;;;;;1.50;0.55;;;26.40;48.50;;;;;;5009119;28;20467;-59
2021/07/17 11:01:55;;;;;;;0.88;0.50;;;26.40;48.60;;;;;;5015822;28;20041;-60
2021/07/17 11:04:31;;;;;;;1.10;0.55;;;26.40;48.50;;;;;;5017540;28;20062;-55
2021/07/17 11:07:17;;;;;;;0.73;0.50;;;26.40;48.50;;;;;;5013547;28;20029;-58
2021/07/17 11:10:02;;;;;;;0.65;0.45;;;26.40;48.50;;;;;;5016470;28;20073;-60
2021/07/17 11:12:57;;;;;;;1.42;0.50;;;26.40;48.50;;;;;;5009429;28;20442;-60
2021/07/17 11:15:32;;;;;;;1.05;0.45;;;26.40;48.50;;;;;;5003274;28;20034;-61
2021/07/17 11:18:18;;;;;;;0.90;0.40;;;26.40;48.50;;;;;;5020583;28;20026;-63
2021/07/17 11:20:45;;;;;;;1.23;0.30;;;26.40;48.50;;;;;;5019948;28;20046;-58
2021/07/17 11:23:16;;;;;;;0.70;0.40;;;26.50;48.50;;;;;;5015695;28;20457;-65
2021/07/17 11:25:57;;;;;;;1.50;0.73;;;26.40;48.40;;;;;;5019127;28;20137;-58
2021/07/17 11:28:45;;;;;;;0.85;0.50;;;26.50;48.40;;;;;;5009214;28;20437;-60
2021/07/17 11:31:29;;;;;;;0.55;0.40;;;26.50;48.40;;;;;;5010041;28;20041;-56
2021/07/17 11:34:22;;;;;;;;;;;26.50;48.40;;;;;;5016547;28;20045;-60
2021/07/17 11:36:51;;;;;;;1.25;0.50;;;26.50;48.60;;;;;;5032304;28;19909;-55
2021/07/17 11:39:22;;;;;;;0.93;0.40;;;26.40;48.50;;;;;;5017856;28;20480;-60
2021/07/17 11:41:48;;;;;;;1.27;0.55;;;26.50;48.50;;;;;;5021950;28;20084;-62
2021/07/17 11:44:14;;;;;;;0.93;0.55;;;26.50;48.60;;;;;;5017081;28;20029;-62
2021/07/17 11:47:17;;;;;;;1.30;0.57;;;26.50;48.60;;;;;;5015695;28;20033;-59
2021/07/17 11:49:49;;;;;;;0.60;0.40;;;26.60;48.50;;;;;;4983999;28;20049;-56
2021/07/17 11:52:26;;;;;;;1.60;0.60;;;26.60;48.60;;;;;;5008682;28;20117;-64
2021/07/17 11:55:24;;;;;;;2.05;0.60;;;26.70;48.80;;;;;;5005234;28;20084;-62
2021/07/17 11:57:50;;;;;;;0.90;0.30;;;26.70;48.80;;;;;;4954851;28;20062;-61
2021/07/17 12:00:20;;;;;;;0.73;0.40;;;26.70;49.50;;;;;;5003468;28;20026;-61
2021/07/17 12:02:53;;;;;;;0.90;0.50;;;26.80;49.00;;;;;;5016397;28;20034;-61
2021/07/17 12:05:19;;;;;;;2.03;0.63;;;26.80;48.90;;;;;;5016651;28;20026;-61
2021/07/17 12:07:46;;;;;;;0.93;0.60;;;26.80;48.80;;;;;;5024685;28;20033;-57
2021/07/17 12:10:15;;;;;;;1.15;0.75;;;26.80;48.80;;;;;;5028169;28;20095;-62
2021/07/17 12:12:49;;;;;;;0.75;0.43;;;26.80;48.80;;;;;;5019707;28;20462;-58
2021/07/17 12:15:30;;;;;;;1.13;0.60;;;26.80;48.90;;;;;;5019762;28;20038;-59
2021/07/17 12:18:02;;;;;;;1.25;0.60;;;26.80;48.80;;;;;;5023184;28;20044;-59
2021/07/17 12:20:33;;;;;;;1.50;0.50;;;26.80;48.80;;;;;;5034752;28;20466;-61
2021/07/17 12:23:18;;;;;;;0.57;0.40;;;26.80;48.80;;;;;;5021161;28;20418;-60
2021/07/17 12:25:50;;;;;;;1.30;0.50;;;26.80;48.70;;;;;;5013670;28;20037;-60
2021/07/17 12:28:23;;;;;;;0.75;0.50;;;26.80;48.60;;;;;;5014280;28;20076;-59
2021/07/17 12:30:56;;;;;;;0.47;0.40;;;26.80;48.60;;;;;;5000545;28;20046;-61
2021/07/17 12:33:32;;;;;;;1.10;0.50;;;26.80;48.60;;;;;;5010299;28;20080;-62
2021/07/17 12:36:05;;;;;;;2.67;0.55;;;26.80;48.50;;;;;;5024878;28;20040;-58
2021/07/17 12:38:39;;;;;;;0.68;0.40;;;26.80;49.00;;;;;;4996251;28;20497;-58
2021/07/17 12:41:09;;;;;;;0.82;0.30;;;26.80;48.40;;;;;;5020487;28;20437;-59
2021/07/17 12:43:43;;;;;;;0.65;0.30;;;26.90;48.50;;;;;;5016620;28;20117;-59
2021/07/17 12:46:18;;;;;;;3.20;0.65;;;26.90;48.50;;;;;;5031931;28;20033;-59
2021/07/17 12:48:52;;;;;;;1.27;0.40;;;26.90;48.40;;;;;;5033841;28;20033;-59
2021/07/17 12:51:35;;;;;;;0.68;0.40;;;26.90;48.50;;;;;;5028106;28;20422;-61
2021/07/17 12:54:04;;;;;;;0.80;0.32;;;26.90;48.40;;;;;;5005111;28;20425;-59